createdAt,value
2023-09-26T00:00:22.065Z,11.05
2023-09-26T00:02:49.806Z,10.94
2023-09-26T00:05:19.942Z,10.97
2023-09-26T00:07:50.577Z,11.00
2023-09-26T00:10:19.779Z,10.97
2023-09-26T00:12:48.158Z,11.03
2023-09-26T00:15:16.726Z,10.96
2023-09-26T00:17:45.271Z,10.96
2023-09-26T00:20:17.115Z,10.87
2023-09-26T00:22:44.819Z,10.83
2023-09-26T00:25:14.253Z,10.78
2023-09-26T00:27:42.044Z,10.63
2023-09-26T00:30:10.909Z,10.63
2023-09-26T00:32:40.034Z,10.66
2023-09-26T00:35:13.275Z,10.52
2023-09-26T00:37:42.300Z,10.45
2023-09-26T00:40:16.445Z,10.52
2023-09-26T00:42:46.257Z,10.57
2023-09-26T00:45:14.733Z,10.58
2023-09-26T00:47:43.417Z,10.54
2023-09-26T00:50:13.959Z,10.54
2023-09-26T00:52:43.424Z,10.50
2023-09-26T00:55:12.050Z,10.50
2023-09-26T00:57:41.761Z,10.55
2023-09-26T01:00:14.583Z,10.54
2023-09-26T01:02:42.729Z,10.63
2023-09-26T01:05:11.150Z,10.56
2023-09-26T01:07:40.411Z,10.46
2023-09-26T01:10:09.753Z,10.37
2023-09-26T01:12:39.631Z,10.26
2023-09-26T01:15:08.876Z,10.22
2023-09-26T01:17:37.620Z,10.22
2023-09-26T01:20:13.101Z,10.15
2023-09-26T01:22:45.449Z,10.13
2023-09-26T01:25:16.935Z,9.99
2023-09-26T01:27:45.008Z,9.82
2023-09-26T01:30:14.494Z,9.92
2023-09-26T01:32:42.344Z,9.96
2023-09-26T01:35:10.724Z,10.01
2023-09-26T01:37:39.080Z,10.06
2023-09-26T01:40:17.024Z,9.86
2023-09-26T01:42:46.532Z,9.94
2023-09-26T01:45:14.465Z,10.12
2023-09-26T01:47:47.697Z,10.17
2023-09-26T01:50:16.544Z,10.20
2023-09-26T01:52:45.023Z,10.20
2023-09-26T01:55:15.352Z,10.06
2023-09-26T01:57:43.328Z,10.14
2023-09-26T02:00:14.080Z,10.09
2023-09-26T02:02:43.040Z,10.12
2023-09-26T02:05:11.826Z,10.09
2023-09-26T02:07:39.956Z,10.08
2023-09-26T02:10:09.161Z,10.11
2023-09-26T02:12:38.722Z,9.98
2023-09-26T02:15:09.519Z,9.96
2023-09-26T02:17:39.060Z,10.01
2023-09-26T02:20:13.460Z,9.97
2023-09-26T02:22:43.047Z,9.95
2023-09-26T02:25:11.768Z,9.90
2023-09-26T02:27:39.757Z,9.92
2023-09-26T02:30:09.983Z,9.85
2023-09-26T02:32:40.157Z,9.73
2023-09-26T02:35:10.557Z,9.63
2023-09-26T02:37:39.942Z,9.60
2023-09-26T02:40:11.088Z,9.60
2023-09-26T02:42:39.924Z,9.72
2023-09-26T02:45:09.185Z,9.75
2023-09-26T02:47:37.145Z,9.81
2023-09-26T02:50:08.856Z,9.85
2023-09-26T02:52:36.638Z,9.86
2023-09-26T02:55:04.813Z,9.83
2023-09-26T02:57:35.261Z,9.78
2023-09-26T03:00:15.191Z,9.82
2023-09-26T03:02:43.433Z,9.76
2023-09-26T03:05:13.056Z,9.80
2023-09-26T03:07:41.516Z,9.74
2023-09-26T03:10:10.411Z,9.69
2023-09-26T03:12:38.332Z,9.69
2023-09-26T03:15:08.564Z,9.76
2023-09-26T03:17:36.790Z,9.69
2023-09-26T03:20:09.951Z,9.68
2023-09-26T03:22:39.408Z,9.65
2023-09-26T03:25:08.218Z,9.63
2023-09-26T03:27:36.329Z,9.68
2023-09-26T03:30:04.198Z,9.51
2023-09-26T03:32:32.326Z,9.56
2023-09-26T03:35:00.382Z,9.42
2023-09-26T03:37:28.151Z,9.60
2023-09-26T03:39:57.630Z,9.63
2023-09-26T03:42:25.717Z,9.59
2023-09-26T03:44:53.882Z,9.59
2023-09-26T03:47:21.889Z,9.46
2023-09-26T03:49:54.544Z,9.52
2023-09-26T03:52:22.558Z,9.40
2023-09-26T03:54:51.094Z,9.33
2023-09-26T03:57:20.604Z,9.28
2023-09-26T03:59:50.886Z,9.39
2023-09-26T04:02:19.784Z,9.28
2023-09-26T04:04:48.277Z,9.16
2023-09-26T04:07:16.545Z,9.28
2023-09-26T04:09:45.261Z,9.31
2023-09-26T04:12:13.619Z,9.32
2023-09-26T04:14:42.946Z,9.26
2023-09-26T04:17:11.209Z,9.22
2023-09-26T04:19:39.562Z,9.26
2023-09-26T04:22:07.730Z,9.27
2023-09-26T04:24:36.105Z,9.25
2023-09-26T04:27:04.171Z,9.28
2023-09-26T04:29:32.531Z,9.31
2023-09-26T04:32:02.065Z,9.32
2023-09-26T04:34:30.765Z,9.24
2023-09-26T04:36:58.935Z,9.13
2023-09-26T04:39:27.812Z,9.15
2023-09-26T04:41:56.195Z,9.13
2023-09-26T04:44:24.501Z,9.12
2023-09-26T04:46:53.427Z,9.09
2023-09-26T04:49:22.924Z,9.11
2023-09-26T04:51:51.560Z,9.07
2023-09-26T04:54:19.634Z,9.22
2023-09-26T04:56:48.322Z,9.19
2023-09-26T04:59:16.336Z,9.20
2023-09-26T05:01:47.049Z,9.14
2023-09-26T05:04:15.338Z,8.98
2023-09-26T05:06:45.192Z,9.08
2023-09-26T05:09:13.295Z,9.06
2023-09-26T05:11:41.779Z,9.00
2023-09-26T05:14:09.836Z,9.16
2023-09-26T05:16:37.934Z,9.21
2023-09-26T05:19:06.848Z,9.27
2023-09-26T05:21:35.315Z,9.43
2023-09-26T05:24:06.532Z,9.50
2023-09-26T05:26:34.787Z,9.47
2023-09-26T05:29:03.074Z,9.58
2023-09-26T05:31:33.442Z,9.63
2023-09-26T05:34:01.979Z,9.84
2023-09-26T05:36:30.389Z,9.88
2023-09-26T05:38:58.867Z,10.02
2023-09-26T05:41:28.738Z,10.00
2023-09-26T05:43:57.591Z,10.07
2023-09-26T05:46:25.956Z,10.16
2023-09-26T05:48:54.467Z,10.29
2023-09-26T05:51:22.811Z,10.28
2023-09-26T05:53:51.199Z,10.36
2023-09-26T05:56:19.767Z,10.27
2023-09-26T05:58:50.646Z,10.42
2023-09-26T06:01:19.700Z,10.58
2023-09-26T06:03:48.103Z,10.77
2023-09-26T06:06:16.534Z,11.07
2023-09-26T06:08:45.220Z,11.09
2023-09-26T06:11:13.713Z,10.97
2023-09-26T06:13:44.247Z,11.30
2023-09-26T06:16:14.181Z,11.64
2023-09-26T06:18:42.420Z,14.07
2023-09-26T06:21:10.564Z,15.88
2023-09-26T06:23:39.210Z,16.77
2023-09-26T06:26:07.506Z,18.46
2023-09-26T06:28:36.074Z,18.54
2023-09-26T06:31:08.403Z,19.39
2023-09-26T06:33:38.871Z,21.00
2023-09-26T06:36:13.174Z,19.60
2023-09-26T06:38:41.962Z,19.68
2023-09-26T06:41:10.752Z,20.52
2023-09-26T06:43:38.857Z,21.53
2023-09-26T06:46:08.144Z,21.56
2023-09-26T06:48:39.943Z,23.31
2023-09-26T06:51:09.590Z,23.45
2023-09-26T06:53:38.228Z,23.39
2023-09-26T06:56:07.921Z,23.54
2023-09-26T06:58:37.736Z,24.94
2023-09-26T07:01:13.356Z,25.92
2023-09-26T07:03:43.697Z,23.77
2023-09-26T07:06:13.465Z,24.98
2023-09-26T07:08:42.888Z,26.20
2023-09-26T07:11:11.767Z,26.64
2023-09-26T07:16:11.699Z,27.14
2023-09-26T07:18:40.412Z,27.42
2023-09-26T07:21:11.077Z,28.37
2023-09-26T07:23:42.389Z,25.89
2023-09-26T07:26:15.797Z,27.91
2023-09-26T07:28:45.868Z,27.08
2023-09-26T07:31:15.755Z,27.65
2023-09-26T07:33:44.655Z,28.34
2023-09-26T07:36:14.992Z,27.72
2023-09-26T07:38:46.462Z,27.10
2023-09-26T07:41:14.942Z,26.75
2023-09-26T07:43:43.377Z,28.44
2023-09-26T07:46:12.368Z,29.69
2023-09-26T07:48:41.545Z,28.68
2023-09-26T07:51:13.034Z,28.65
2023-09-26T07:53:45.683Z,29.54
2023-09-26T07:56:14.667Z,30.07
2023-09-26T07:58:43.106Z,28.34
2023-09-26T08:01:11.349Z,29.35
2023-09-26T08:03:40.886Z,30.81
2023-09-26T08:06:09.944Z,28.65
2023-09-26T08:08:39.275Z,29.04
2023-09-26T08:11:11.168Z,28.75
2023-09-26T08:13:41.898Z,30.52
2023-09-26T08:16:11.193Z,29.40
2023-09-26T08:18:39.563Z,28.09
2023-09-26T08:21:08.039Z,29.83
2023-09-26T08:23:36.523Z,32.51
2023-09-26T08:26:08.009Z,32.20
2023-09-26T08:28:38.023Z,31.31
2023-09-26T08:31:08.893Z,31.27
2023-09-26T08:33:37.408Z,29.95
2023-09-26T08:36:14.774Z,29.91
2023-09-26T08:38:43.189Z,28.37
2023-09-26T08:41:12.367Z,30.73
2023-09-26T08:43:41.868Z,29.60
2023-09-26T08:46:10.648Z,29.25
2023-09-26T08:48:40.827Z,31.96
2023-09-26T08:51:09.602Z,33.22
2023-09-26T08:53:37.790Z,31.24
2023-09-26T08:56:06.822Z,30.34
2023-09-26T08:58:36.082Z,32.38
2023-09-26T09:01:06.118Z,31.80
2023-09-26T09:03:34.803Z,29.94
2023-09-26T09:06:03.034Z,32.07
2023-09-26T09:08:31.464Z,30.96
2023-09-26T09:10:59.884Z,30.97
2023-09-26T09:13:30.804Z,31.41
2023-09-26T09:16:17.588Z,32.25
2023-09-26T09:18:48.278Z,32.36
2023-09-26T09:21:29.148Z,31.26
2023-09-26T09:23:59.009Z,29.28
2023-09-26T09:26:30.673Z,28.87
2023-09-26T09:29:00.561Z,30.14
2023-09-26T09:31:30.914Z,29.35
2023-09-26T09:34:00.612Z,30.48
2023-09-26T09:36:29.696Z,30.17
2023-09-26T09:38:58.437Z,29.47
2023-09-26T09:41:26.726Z,31.58
2023-09-26T09:43:55.369Z,30.46
2023-09-26T09:46:27.096Z,29.47
2023-09-26T09:49:00.964Z,29.30
2023-09-26T09:51:29.970Z,29.52
2023-09-26T09:54:01.410Z,27.00
2023-09-26T09:56:37.167Z,28.45
2023-09-26T09:59:07.351Z,26.69
2023-09-26T10:01:37.559Z,27.12
2023-09-26T10:04:09.254Z,27.30
2023-09-26T10:06:39.513Z,27.66
2023-09-26T10:09:08.949Z,29.19
2023-09-26T10:11:38.591Z,28.78
2023-09-26T10:14:07.175Z,27.87
2023-09-26T10:16:36.074Z,27.30
2023-09-26T10:19:05.621Z,28.67
2023-09-26T10:21:36.774Z,28.23
2023-09-26T10:24:30.915Z,28.21
2023-09-26T10:30:00.247Z,27.68
2023-09-26T10:32:38.312Z,28.70
2023-09-26T10:35:30.102Z,27.83
2023-09-26T10:38:12.091Z,27.85
2023-09-26T10:40:40.808Z,26.68
2023-09-26T10:45:59.017Z,25.64
2023-09-26T10:48:27.282Z,26.21
2023-09-26T10:50:56.550Z,26.52
2023-09-26T10:53:27.797Z,25.84
2023-09-26T10:55:56.820Z,25.55
2023-09-26T10:58:29.191Z,25.79
2023-09-26T11:00:59.716Z,25.59
2023-09-26T11:03:28.651Z,25.06
2023-09-26T11:05:57.749Z,24.89
2023-09-26T11:08:28.314Z,25.16
2023-09-26T11:10:56.860Z,25.98
2023-09-26T11:13:26.045Z,25.50
2023-09-26T11:15:54.965Z,24.95
2023-09-26T11:18:24.555Z,24.87
2023-09-26T11:21:02.711Z,25.31
2023-09-26T11:23:44.877Z,24.83
2023-09-26T11:26:13.971Z,25.64
2023-09-26T11:28:42.366Z,25.42
2023-09-26T11:31:11.122Z,26.05
2023-09-26T11:33:39.833Z,25.72
2023-09-26T11:36:09.148Z,25.57
2023-09-26T11:38:48.975Z,25.18
2023-09-26T11:41:17.545Z,24.97
2023-09-26T11:43:49.021Z,24.13
2023-09-26T11:46:18.347Z,25.11
2023-09-26T11:48:48.724Z,24.50
2023-09-26T11:51:17.109Z,24.78
2023-09-26T11:53:47.940Z,24.56
2023-09-26T11:56:16.026Z,24.27
2023-09-26T11:58:44.219Z,24.23
2023-09-26T12:01:14.775Z,23.98
2023-09-26T12:03:43.496Z,23.46
2023-09-26T12:06:11.657Z,23.83
2023-09-26T12:08:40.351Z,24.01
2023-09-26T12:11:09.830Z,23.97
2023-09-26T12:13:38.109Z,23.72
2023-09-26T12:16:07.297Z,24.04
2023-09-26T12:18:35.377Z,24.00
2023-09-26T12:21:05.445Z,24.24
2023-09-26T12:23:34.351Z,24.15
2023-09-26T12:26:02.704Z,23.96
2023-09-26T12:28:34.242Z,24.26
2023-09-26T12:31:03.182Z,24.29
2023-09-26T12:33:31.727Z,23.70
2023-09-26T12:36:00.630Z,23.75
2023-09-26T12:38:29.417Z,24.27
2023-09-26T12:40:57.931Z,23.62
2023-09-26T12:43:26.172Z,23.73
2023-09-26T12:45:56.220Z,23.99
2023-09-26T12:48:25.349Z,23.52
2023-09-26T12:50:53.807Z,23.76
2023-09-26T12:53:22.603Z,23.86
2023-09-26T12:55:50.825Z,24.03
2023-09-26T12:58:19.030Z,24.27
2023-09-26T13:00:47.718Z,23.74
2023-09-26T13:03:20.023Z,23.61
2023-09-26T13:05:48.470Z,23.66
2023-09-26T13:08:17.255Z,24.41
2023-09-26T13:10:45.368Z,24.63
2023-09-26T13:13:13.681Z,24.77
2023-09-26T13:15:42.364Z,24.05
2023-09-26T13:18:11.144Z,24.32
2023-09-26T13:20:40.740Z,23.87
2023-09-26T13:23:09.589Z,24.27
2023-09-26T13:25:37.775Z,24.46
2023-09-26T13:28:06.469Z,24.95
2023-09-26T13:30:36.438Z,24.87
2023-09-26T13:33:07.022Z,24.41
2023-09-26T13:35:35.669Z,24.46
2023-09-26T13:38:05.785Z,24.15
2023-09-26T13:40:34.279Z,24.73
2023-09-26T13:43:02.826Z,24.18
2023-09-26T13:45:30.974Z,24.69
2023-09-26T13:47:59.204Z,24.74
2023-09-26T13:50:27.778Z,25.05
2023-09-26T13:52:55.997Z,25.04
2023-09-26T13:55:27.498Z,25.07
2023-09-26T13:57:56.157Z,25.01
2023-09-26T14:00:24.367Z,24.85
2023-09-26T14:02:54.203Z,24.95
2023-09-26T14:05:24.752Z,24.33
2023-09-26T14:07:53.322Z,24.66
2023-09-26T14:10:23.959Z,24.64
2023-09-26T14:12:54.934Z,24.77
2023-09-26T14:15:23.708Z,24.94
2023-09-26T14:17:53.899Z,24.72
2023-09-26T14:20:23.119Z,24.10
2023-09-26T14:22:52.099Z,24.03
2023-09-26T14:25:21.075Z,24.35
2023-09-26T14:27:50.041Z,24.35
2023-09-26T14:30:20.405Z,24.33
2023-09-26T14:32:49.881Z,24.56
2023-09-26T14:35:18.627Z,24.48
2023-09-26T14:37:48.596Z,24.69
2023-09-26T14:40:16.856Z,24.68
2023-09-26T14:42:45.915Z,24.89
2023-09-26T14:45:15.154Z,24.23
2023-09-26T14:47:44.919Z,24.48
2023-09-26T14:50:13.428Z,24.63
2023-09-26T14:52:42.309Z,24.65
2023-09-26T14:55:10.845Z,24.62
2023-09-26T14:57:39.064Z,24.38
2023-09-26T15:00:10.584Z,24.52
2023-09-26T15:02:39.531Z,24.02
2023-09-26T15:05:10.141Z,23.90
2023-09-26T15:07:38.519Z,23.85
2023-09-26T15:10:09.483Z,24.12
2023-09-26T15:12:37.664Z,23.81
2023-09-26T15:15:07.015Z,23.67
2023-09-26T15:17:35.923Z,23.75
2023-09-26T15:20:05.081Z,23.92
2023-09-26T15:22:34.753Z,23.76
2023-09-26T15:25:04.049Z,23.74
2023-09-26T15:27:32.737Z,23.65
2023-09-26T15:30:01.155Z,23.68
2023-09-26T15:32:29.925Z,23.51
2023-09-26T15:34:59.038Z,23.57
2023-09-26T15:37:30.120Z,23.62
2023-09-26T15:40:02.077Z,23.50
2023-09-26T15:42:30.397Z,23.39
2023-09-26T15:44:59.188Z,23.30
2023-09-26T15:47:29.221Z,23.32
2023-09-26T15:49:57.548Z,23.31
2023-09-26T15:52:25.943Z,23.26
2023-09-26T15:54:54.377Z,23.13
2023-09-26T15:57:23.872Z,23.22
2023-09-26T15:59:52.621Z,23.14
2023-09-26T16:02:21.625Z,23.13
2023-09-26T16:04:50.466Z,22.84
2023-09-26T16:07:18.718Z,22.71
2023-09-26T16:09:46.970Z,22.68
2023-09-26T16:12:15.242Z,22.67
2023-09-26T16:14:44.901Z,22.55
2023-09-26T16:17:14.083Z,22.47
2023-09-26T16:19:42.595Z,22.46
2023-09-26T16:22:11.450Z,22.30
2023-09-26T16:24:40.533Z,22.27
2023-09-26T16:27:08.878Z,22.17
2023-09-26T16:29:37.075Z,22.15
2023-09-26T16:32:07.451Z,22.10
2023-09-26T16:34:35.700Z,21.92
2023-09-26T16:37:04.138Z,21.78
2023-09-26T16:39:32.877Z,21.71
2023-09-26T16:42:02.123Z,21.53
2023-09-26T16:44:30.442Z,21.39
2023-09-26T16:46:59.334Z,21.28
2023-09-26T16:49:28.965Z,21.13
2023-09-26T16:51:57.109Z,21.01
2023-09-26T16:54:25.860Z,20.86
2023-09-26T16:56:54.192Z,20.80
2023-09-26T16:59:22.479Z,20.75
2023-09-26T17:01:52.230Z,20.64
2023-09-26T17:04:21.681Z,20.57
2023-09-26T17:06:57.183Z,20.43
2023-09-26T17:09:25.697Z,20.38
2023-09-26T17:11:54.131Z,20.31
2023-09-26T17:14:25.423Z,20.17
2023-09-26T17:16:53.599Z,20.00
2023-09-26T17:19:21.843Z,19.91
2023-09-26T17:21:51.946Z,19.78
2023-09-26T17:24:20.579Z,19.64
2023-09-26T17:26:48.843Z,19.40
2023-09-26T17:29:17.457Z,19.45
2023-09-26T17:31:46.070Z,19.30
2023-09-26T17:34:14.325Z,19.27
2023-09-26T17:36:43.085Z,19.14
2023-09-26T17:39:13.408Z,18.94
2023-09-26T17:41:41.893Z,19.07
2023-09-26T17:44:11.312Z,18.93
2023-09-26T17:46:43.740Z,18.88
2023-09-26T17:49:12.920Z,18.91
2023-09-26T17:51:41.437Z,18.82
2023-09-26T17:54:09.576Z,18.55
2023-09-26T17:56:39.537Z,18.56
2023-09-26T17:59:07.737Z,18.57
2023-09-26T18:01:36.372Z,18.47
2023-09-26T18:04:04.970Z,18.37
2023-09-26T18:06:33.077Z,18.29
2023-09-26T18:09:01.633Z,18.23
2023-09-26T18:11:29.704Z,18.13
2023-09-26T18:13:59.133Z,18.01
2023-09-26T18:16:27.952Z,17.90
2023-09-26T18:18:56.241Z,17.80
2023-09-26T18:21:25.127Z,17.66
2023-09-26T18:23:55.625Z,17.62
2023-09-26T18:26:24.310Z,17.60
2023-09-26T18:28:52.448Z,17.68
2023-09-26T18:31:22.544Z,17.55
2023-09-26T18:33:50.671Z,17.51
2023-09-26T18:36:18.860Z,17.47
2023-09-26T18:38:47.396Z,17.56
2023-09-26T18:41:15.515Z,17.48
2023-09-26T18:43:43.695Z,17.48
2023-09-26T18:46:12.502Z,17.37
2023-09-26T18:48:41.997Z,17.29
2023-09-26T18:51:09.919Z,17.12
2023-09-26T18:53:38.521Z,17.02
2023-09-26T18:56:06.779Z,16.99
2023-09-26T18:58:34.944Z,16.75
2023-09-26T19:01:03.560Z,16.71
2023-09-26T19:03:31.809Z,16.79
2023-09-26T19:06:04.480Z,16.88
2023-09-26T19:08:32.853Z,16.76
2023-09-26T19:11:01.577Z,16.72
2023-09-26T19:13:30.237Z,16.62
2023-09-26T19:15:58.386Z,16.54
2023-09-26T19:18:26.572Z,16.49
2023-09-26T19:20:55.525Z,16.40
2023-09-26T19:23:24.990Z,16.41
2023-09-26T19:25:53.448Z,16.28
2023-09-26T19:28:22.898Z,16.43
2023-09-26T19:30:50.941Z,16.61
2023-09-26T19:33:19.805Z,16.75
2023-09-26T19:35:47.921Z,16.61
2023-09-26T19:38:16.791Z,16.64
2023-09-26T19:40:46.697Z,16.41
2023-09-26T19:43:14.728Z,16.14
2023-09-26T19:45:42.770Z,15.98
2023-09-26T19:48:11.946Z,15.96
2023-09-26T19:50:40.188Z,16.01
2023-09-26T19:53:08.252Z,16.07
2023-09-26T19:55:36.689Z,16.00
2023-09-26T19:58:06.496Z,16.03
2023-09-26T20:00:35.038Z,16.27
2023-09-26T20:03:03.487Z,16.23
2023-09-26T20:05:31.634Z,16.22
2023-09-26T20:08:00.228Z,16.01
2023-09-26T20:10:28.519Z,15.74
2023-09-26T20:12:56.864Z,15.52
2023-09-26T20:15:27.023Z,15.69
2023-09-26T20:17:55.369Z,15.63
2023-09-26T20:20:23.903Z,15.79
2023-09-26T20:22:52.161Z,16.07
2023-09-26T20:25:20.684Z,16.11
2023-09-26T20:27:52.128Z,15.91
2023-09-26T20:30:20.881Z,15.69
2023-09-26T20:32:50.544Z,15.30
2023-09-26T20:35:18.820Z,15.39
2023-09-26T20:37:47.144Z,15.35
2023-09-26T20:40:15.173Z,15.17
2023-09-26T20:42:43.212Z,15.07
2023-09-26T20:45:12.220Z,15.05
2023-09-26T20:47:40.284Z,15.04
2023-09-26T20:50:10.635Z,15.08
2023-09-26T20:52:38.667Z,14.99
2023-09-26T20:55:07.928Z,14.90
2023-09-26T20:57:36.056Z,14.95
2023-09-26T21:00:05.741Z,14.89
2023-09-26T21:02:34.741Z,14.81
2023-09-26T21:05:03.294Z,14.85
2023-09-26T21:07:33.316Z,15.03
2023-09-26T21:10:01.426Z,15.07
2023-09-26T21:12:29.607Z,15.09
2023-09-26T21:14:57.987Z,15.06
2023-09-26T21:17:25.981Z,15.08
2023-09-26T21:19:54.139Z,15.01
2023-09-26T21:22:22.659Z,14.97
2023-09-26T21:24:52.092Z,14.86
2023-09-26T21:27:20.155Z,14.72
2023-09-26T21:29:48.826Z,14.59
2023-09-26T21:32:17.344Z,14.50
2023-09-26T21:34:45.720Z,14.31
2023-09-26T21:37:13.809Z,14.28
2023-09-26T21:39:41.828Z,14.23
2023-09-26T21:42:11.261Z,14.24
2023-09-26T21:44:39.714Z,14.65
2023-09-26T21:47:07.890Z,14.69
2023-09-26T21:49:36.111Z,14.29
2023-09-26T21:52:04.563Z,14.29
2023-09-26T21:54:32.656Z,14.20
2023-09-26T21:57:03.847Z,14.13
2023-09-26T21:59:33.584Z,14.07
2023-09-26T22:02:02.036Z,14.07
2023-09-26T22:07:20.473Z,13.80
2023-09-26T22:09:48.516Z,13.78
2023-09-26T22:12:17.463Z,13.85
2023-09-26T22:14:47.238Z,13.71
2023-09-26T22:17:15.610Z,13.69
2023-09-26T22:19:44.308Z,13.67
2023-09-26T22:22:13.187Z,13.65
2023-09-26T22:24:41.655Z,13.59
2023-09-26T22:27:09.674Z,13.53
2023-09-26T22:29:37.803Z,13.65
2023-09-26T22:32:07.744Z,13.59
2023-09-26T22:34:37.616Z,13.68
2023-09-26T22:37:05.613Z,13.64
2023-09-26T22:39:34.484Z,13.53
2023-09-26T22:42:02.579Z,13.42
2023-09-26T22:44:32.206Z,13.42
2023-09-26T22:47:00.762Z,13.49
2023-09-26T22:49:30.309Z,13.48
2023-09-26T22:52:00.176Z,13.46
2023-09-26T22:54:28.436Z,13.41
2023-09-26T22:56:57.163Z,13.42
2023-09-26T22:59:26.309Z,13.23
2023-09-26T23:01:54.698Z,13.29
2023-09-26T23:04:23.190Z,13.26
2023-09-26T23:06:53.076Z,13.22
2023-09-26T23:09:21.073Z,12.97
2023-09-26T23:11:49.039Z,12.99
2023-09-26T23:14:17.332Z,12.96
2023-09-26T23:16:45.376Z,12.99
2023-09-26T23:19:13.367Z,13.01
2023-09-26T23:21:41.649Z,12.98
2023-09-26T23:24:11.533Z,12.89
2023-09-26T23:26:39.493Z,12.95
2023-09-26T23:29:08.115Z,12.91
2023-09-26T23:31:39.733Z,12.90
2023-09-26T23:34:07.902Z,12.85
2023-09-26T23:36:36.293Z,12.85
2023-09-26T23:39:07.130Z,12.73
2023-09-26T23:41:37.064Z,12.72
2023-09-26T23:44:08.397Z,12.78
2023-09-26T23:46:36.924Z,12.68
2023-09-26T23:49:05.034Z,12.73
2023-09-26T23:51:33.463Z,12.67
2023-09-26T23:54:01.490Z,12.69
2023-09-26T23:56:29.619Z,12.54
2023-09-26T23:58:59.446Z,12.52
